Domov               UVHVVR             MKGP            O straneh              
ZDRAVSTVENO VARSTVO RASTLIN
  MREŽA AGROMET. POSTAJ
 ► PROGNOSTIČNA OBVESTILA
AGROMETEOROLOŠKI PODATKI -
ARSO
OBVLADOVANJE TVEGANJ ZARADI
NEUGODNIH VREMENSKIH RAZMER
  ► NARAVNE NESREČE
  ► SUŠA/MOČA
  ► NAMAKANJE
  ► ŽLED (gozdarstvo)
KARTOGRAFSKI PRIKAZI
SPLETNE POVEZAVE
PROJEKTI IN PUBLIKACIJE

AGROMETEOROLOŠKA MREŽA: VREMENSKE POSTAJE IN FENOLOŠKA OPAZOVANJA

Pregled podatkov za lokacijo Zimica, meteorološka postaja 27472

Pregled senzorjev na lokaciji

ID Ime Zadnja
vrednost
Datum
zadnje
spremembe
Tip
senzorja
4317 Omočenost lista (U) 0 U 20.6.2018 16:30 A730WET
1715 Padavine (mm) 0 mm 20.6.2018 16:30 Generic 0.2 mm
1714 Relativna vlaga 2 m (% RH) 39,05 % RH 20.6.2018 16:30 Generic 0 - 100 %
1713 Temperatura 2 m (°C) 28,45 °C 20.6.2018 16:30 Generic -40 - +60 °C

Pregled podatkov zadnjih 24 ur

Zap.
št.
Datum in čas Zimica
Omočenost
lista
Padavine Relativna
vlaga
2
m
Temperatura
2
m
1 20.6.2018 17:00
2 20.6.2018 16:30
3 20.6.2018 16:00
4 20.6.2018 15:30 0 0 39 28,4
5 20.6.2018 15:00 0 0 37,3 28,2
6 20.6.2018 14:30 0 0 38,7 28,2
7 20.6.2018 14:00 0 0 37,7 28,4
8 20.6.2018 13:30 0 0 39,1 28,1
9 20.6.2018 13:00 0 0 39,7 28
10 20.6.2018 12:30 0 0 37,6 27,2
11 20.6.2018 12:00 0 0 37,8 27,2
12 20.6.2018 11:30 0 0 40,7 26,8
13 20.6.2018 11:00 0 0 41,7 25,9
14 20.6.2018 10:30 0 0 41,8 25,8
15 20.6.2018 10:00 0 0 44,3 25,5
16 20.6.2018 09:30 0 0 46,9 25,2
17 20.6.2018 09:00 0 0 48,9 24,2
18 20.6.2018 08:30 0 0 50,2 23,9
19 20.6.2018 08:00 0 0 50,7 23
20 20.6.2018 07:30 0 0 53,7 22,3
21 20.6.2018 07:00 0 0 56,9 21,4
22 20.6.2018 06:30 0 0 54,8 21,1
23 20.6.2018 06:00 0 0 58,8 19,8
24 20.6.2018 05:30 0 0 63,3 18,2
25 20.6.2018 05:00 0 0 65,4 17,3
26 20.6.2018 04:30 0 0 67,1 16,9
27 20.6.2018 04:00 0 0 66,1 17,3
28 20.6.2018 03:30 0 0 67,1 17,1
29 20.6.2018 03:00 0 0 64,2 17,9
30 20.6.2018 02:30 0 0 61,8 18,2
31 20.6.2018 02:00 0 0 60,6 18,6
32 20.6.2018 01:30 0 0 67,8 17,7
33 20.6.2018 01:00 0 0 68,8 17,7
34 20.6.2018 00:30 0 0 66,6 18
35 20.6.2018 00:00 0 0 71,6 17,8
36 19.6.2018 23:30 0 0 67,9 18,6
37 19.6.2018 23:00 0 0 71 18,2
38 19.6.2018 22:30 0 0 70,5 18,3
39 19.6.2018 22:00 0 0 74,2 17,9
40 19.6.2018 21:30 0 0 72,6 18,4
41 19.6.2018 21:00 0 0 71,3 18,9
42 19.6.2018 20:30 0 0 67 19,9
43 19.6.2018 20:00 0 0 57,6 21,8
44 19.6.2018 19:30 0 0 50,5 23,6
45 19.6.2018 19:00 0 0 44,7 24,7
46 19.6.2018 18:30 0 0 42,2 25,6
47 19.6.2018 18:00 0 0 40,3 26,2
48 19.6.2018 17:30 0 0 39,5 26,6
© 2011 Ministrstvo za kmetijstvo, gozdarstvo in prehrano. Vse pravice pridržane.